Time;durP1;ratioP1;P1;durP2;ratioP2;P2;SDS_P1;SDS_P2;PMS_P1;PMS_P2;Temp;Humidity;BMP_temperature;BMP_pressure;BME280_temperature;BME280_humidity;BME280_pressure;Samples;Min_cycle;Max_cycle;Signal;HPM_P1;HPM_P2
2023/08/10 00:01:59;;;;;;;18.75;13.30;;;;;;;14.39;87.74;101979.31;5091178;28;20123;-67
2023/08/10 00:04:24;;;;;;;17.45;12.63;;;;;;;14.40;87.02;101989.34;5091127;28;20047;-67
2023/08/10 00:06:49;;;;;;;20.42;13.20;;;;;;;14.40;86.98;101983.75;5091195;28;20328;-67
2023/08/10 00:09:15;;;;;;;19.90;13.20;;;;;;;14.41;87.00;101979.84;5091259;28;20055;-67
2023/08/10 00:11:40;;;;;;;18.50;13.13;;;;;;;14.39;86.30;101979.31;5091095;28;20035;-67
2023/08/10 00:14:05;;;;;;;19.48;13.45;;;;;;;14.40;86.36;101983.75;5091180;28;20024;-67
2023/08/10 00:16:32;;;;;;;20.73;12.77;;;;;;;14.38;86.38;101985.22;5091139;28;20035;-68
2023/08/10 00:18:57;;;;;;;20.73;13.50;;;;;;;14.35;86.48;101984.69;5091000;28;20024;-67
2023/08/10 00:21:23;;;;;;;19.98;13.70;;;;;;;14.35;86.56;101983.88;5090960;28;20028;-67
2023/08/10 00:23:48;;;;;;;20.02;13.45;;;;;;;14.34;86.83;101993.34;5091207;28;20066;-67
2023/08/10 00:26:13;;;;;;;21.30;13.52;;;;;;;14.32;86.88;101990.84;5090846;28;20112;-67
2023/08/10 00:28:39;;;;;;;20.48;13.98;;;;;;;14.33;87.82;101986.13;5090956;28;20048;-67
2023/08/10 00:31:04;;;;;;;21.13;13.88;;;;;;;14.30;88.32;101982.00;5090905;28;20103;-67
2023/08/10 00:33:30;;;;;;;21.65;14.40;;;;;;;14.29;89.02;101971.16;5089431;28;20020;-67
2023/08/10 00:35:56;;;;;;;22.15;13.68;;;;;;;14.32;89.63;101979.72;5090870;28;20032;-67
2023/08/10 00:38:21;;;;;;;21.67;14.38;;;;;;;14.32;89.13;101990.84;5090868;28;20559;-67
2023/08/10 00:40:46;;;;;;;21.17;13.88;;;;;;;14.32;89.24;101987.25;5090781;28;20093;-67
2023/08/10 00:43:12;;;;;;;21.70;14.02;;;;;;;14.36;89.60;101982.72;5090776;28;20024;-67
2023/08/10 00:45:38;;;;;;;20.75;13.75;;;;;;;14.38;89.92;101985.22;5089312;28;20036;-67
2023/08/10 00:48:04;;;;;;;20.02;13.63;;;;;;;14.37;90.22;101973.22;5090954;28;20109;-67
2023/08/10 00:50:30;;;;;;;24.10;14.23;;;;;;;14.38;90.42;101976.84;5090699;28;20395;-66
2023/08/10 00:52:56;;;;;;;20.50;14.70;;;;;;;14.39;90.56;101975.72;5090620;28;20043;-66
2023/08/10 00:55:21;;;;;;;20.08;14.25;;;;;;;14.41;90.89;101979.00;5090610;28;20581;-66
2023/08/10 00:57:47;;;;;;;20.92;14.05;;;;;;;14.34;90.82;101968.28;5093794;28;20127;-66
2023/08/10 01:00:13;;;;;;;22.42;14.43;;;;;;;14.39;91.38;101982.09;5094500;28;20036;-66
2023/08/10 01:02:39;;;;;;;20.10;14.07;;;;;;;14.40;91.73;101980.97;5094421;28;20036;-67
2023/08/10 01:05:07;;;;;;;21.10;14.30;;;;;;;14.40;92.03;101972.63;5094297;28;20031;-66
2023/08/10 01:07:54;;;;;;;20.13;14.50;;;;;;;14.37;92.29;101964.88;5094369;28;20051;-66
2023/08/10 01:10:33;;;;;;;20.58;14.20;;;;;;;14.35;92.94;101978.31;5094112;28;20028;-66
2023/08/10 01:13:29;;;;;;;21.05;14.75;;;;;;;14.24;93.43;101974.84;5094136;28;20034;-67
2023/08/10 01:16:15;;;;;;;21.30;15.20;;;;;;;14.31;93.90;101980.03;5091159;28;20052;-67
2023/08/10 01:18:41;;;;;;;21.13;14.35;;;;;;;14.29;94.58;101977.56;5093687;28;20136;-66
2023/08/10 01:21:40;;;;;;;20.35;14.25;;;;;;;14.32;94.26;101978.91;5094045;28;20080;-66
2023/08/10 01:24:24;;;;;;;21.00;14.23;;;;;;;14.33;94.80;101973.00;5073046;28;20055;-66
2023/08/10 01:26:51;;;;;;;21.27;14.52;;;;;;;14.37;95.02;101980.78;5094027;28;20031;-66
2023/08/10 01:29:17;;;;;;;19.73;14.68;;;;;;;14.39;95.22;101987.69;5092486;28;20118;-67
2023/08/10 01:31:42;;;;;;;20.10;14.15;;;;;;;14.40;95.25;101994.09;5092449;28;20043;-66
2023/08/10 01:34:07;;;;;;;21.40;14.70;;;;;;;14.37;95.31;101997.47;5093676;28;20129;-66
2023/08/10 01:36:33;;;;;;;21.17;14.48;;;;;;;14.34;96.09;101988.59;5093655;28;20020;-66
2023/08/10 01:38:58;;;;;;;20.58;14.15;;;;;;;14.35;96.04;101992.22;5093630;28;20430;-66
2023/08/10 01:41:24;;;;;;;21.52;14.57;;;;;;;14.33;96.34;101994.47;5093627;28;20036;-66
2023/08/10 01:43:49;;;;;;;22.00;14.60;;;;;;;14.30;96.92;101998.69;5093659;28;20044;-66
2023/08/10 01:46:19;;;;;;;21.65;14.38;;;;;;;14.24;97.60;101993.50;5093474;28;20081;-66
2023/08/10 01:48:48;;;;;;;20.40;14.68;;;;;;;14.16;98.24;101992.22;5093458;28;20028;-66
2023/08/10 01:51:17;;;;;;;20.67;14.30;;;;;;;14.14;98.77;101989.75;5093538;28;20055;-66
2023/08/10 01:53:45;;;;;;;20.60;14.98;;;;;;;14.12;99.24;101993.97;5093221;28;20299;-66
2023/08/10 01:56:11;;;;;;;21.67;14.90;;;;;;;14.09;99.53;101997.34;5093372;28;20449;-66
2023/08/10 01:58:37;;;;;;;21.63;14.95;;;;;;;14.05;99.98;101991.56;5093247;28;20016;-66
2023/08/10 02:01:02;;;;;;;21.20;14.70;;;;;;;13.99;100.00;101987.19;5093279;28;20028;-66
2023/08/10 02:03:27;;;;;;;20.02;14.60;;;;;;;13.91;100.00;101980.38;5093076;28;20062;-66
2023/08/10 02:05:53;;;;;;;20.58;14.20;;;;;;;13.87;100.00;101985.72;5093171;28;20464;-66
2023/08/10 02:08:18;;;;;;;21.60;15.20;;;;;;;13.80;100.00;101981.66;5092268;28;20052;-66
2023/08/10 02:10:43;;;;;;;21.38;14.43;;;;;;;13.74;100.00;101986.47;5092984;28;20097;-66
2023/08/10 02:13:09;;;;;;;22.58;14.73;;;;;;;13.69;100.00;101978.19;5093094;28;20110;-66
2023/08/10 02:15:34;;;;;;;21.13;14.00;;;;;;;13.67;100.00;101975.69;5092970;28;20024;-66
2023/08/10 02:18:00;;;;;;;20.60;14.82;;;;;;;13.59;100.00;101981.13;5092925;28;20126;-66
2023/08/10 02:20:25;;;;;;;21.52;15.13;;;;;;;13.54;100.00;101985.59;5092852;28;20484;-67
2023/08/10 02:22:52;;;;;;;19.92;14.60;;;;;;;13.46;100.00;101994.63;5092781;28;20040;-66
2023/08/10 02:25:21;;;;;;;20.15;14.50;;;;;;;13.38;100.00;101995.25;5092766;28;20497;-66
2023/08/10 02:27:47;;;;;;;20.52;13.77;;;;;;;13.32;100.00;101988.94;5092739;28;20034;-66
2023/08/10 02:30:14;;;;;;;21.15;14.60;;;;;;;13.20;100.00;101989.34;5092471;28;20436;-66
2023/08/10 02:32:39;;;;;;;20.25;14.75;;;;;;;13.18;100.00;101997.16;5092412;28;20502;-66
2023/08/10 02:35:05;;;;;;;21.02;14.32;;;;;;;13.13;100.00;101994.41;5092449;28;20040;-66
2023/08/10 02:37:31;;;;;;;19.98;13.82;;;;;;;13.14;100.00;101998.03;5092662;28;20032;-66
2023/08/10 02:39:57;;;;;;;19.58;13.98;;;;;;;13.10;100.00;102000.59;5092479;28;20476;-66
2023/08/10 02:42:22;;;;;;;20.33;13.90;;;;;;;13.07;100.00;101992.81;5090949;28;20099;-66
2023/08/10 02:44:49;;;;;;;19.63;14.18;;;;;;;13.03;100.00;101997.34;5092375;28;20024;-66
2023/08/10 02:47:15;;;;;;;20.58;14.48;;;;;;;12.97;100.00;102001.28;5092330;28;20024;-66
2023/08/10 02:49:40;;;;;;;20.48;14.55;;;;;;;12.91;100.00;102004.13;5092598;28;20107;-66
2023/08/10 02:52:05;;;;;;;18.98;14.20;;;;;;;12.91;100.00;102000.50;5092089;28;20107;-66
2023/08/10 02:54:31;;;;;;;20.92;15.23;;;;;;;12.88;100.00;102001.09;5092394;28;20467;-66
2023/08/10 02:56:57;;;;;;;20.70;14.43;;;;;;;12.83;100.00;102015.03;5092345;28;20547;-66
2023/08/10 02:59:22;;;;;;;21.98;14.93;;;;;;;12.82;100.00;102008.66;5092246;28;20100;-66
2023/08/10 03:01:47;;;;;;;21.13;15.43;;;;;;;12.80;100.00;102003.38;5092174;28;20039;-66
2023/08/10 03:04:13;;;;;;;19.50;14.88;;;;;;;12.79;100.00;102003.69;5092196;28;20109;-66
2023/08/10 03:06:39;;;;;;;20.05;14.93;;;;;;;12.71;100.00;102002.34;5090610;28;20510;-66
2023/08/10 03:09:04;;;;;;;21.05;14.10;;;;;;;12.70;100.00;102005.44;5092041;28;20044;-66
2023/08/10 03:11:30;;;;;;;19.55;14.07;;;;;;;12.68;100.00;102010.44;5091953;28;20333;-66
2023/08/10 03:13:56;;;;;;;20.50;14.60;;;;;;;12.69;100.00;102009.31;5090612;28;20155;-66
2023/08/10 03:16:21;;;;;;;20.88;15.05;;;;;;;12.68;100.00;102016.84;5091829;28;20498;-66
2023/08/10 03:18:47;;;;;;;21.02;14.63;;;;;;;12.71;100.00;102013.47;5091605;28;20503;-66
2023/08/10 03:21:12;;;;;;;21.60;14.88;;;;;;;12.71;100.00;102012.66;5091752;28;20031;-66
2023/08/10 03:23:38;;;;;;;19.88;14.13;;;;;;;12.75;100.00;102022.06;5091816;28;20099;-66
2023/08/10 03:26:03;;;;;;;21.92;14.77;;;;;;;12.69;100.00;102024.06;5091626;28;20028;-66
2023/08/10 03:28:28;;;;;;;19.77;14.32;;;;;;;12.75;100.00;102025.66;5090141;28;20177;-66
2023/08/10 03:30:54;;;;;;;21.27;14.60;;;;;;;12.74;100.00;102026.75;5091509;28;20528;-66
2023/08/10 03:33:19;;;;;;;22.38;14.93;;;;;;;12.76;100.00;102023.69;5091458;28;20396;-66
2023/08/10 03:35:44;;;;;;;21.95;15.35;;;;;;;12.75;100.00;102016.50;5091455;28;20024;-66
2023/08/10 03:38:10;;;;;;;20.30;14.30;;;;;;;12.74;100.00;102017.63;5091579;28;20472;-66
2023/08/10 03:40:35;;;;;;;20.58;14.10;;;;;;;12.76;100.00;102015.34;5091502;28;20143;-67
2023/08/10 03:43:01;;;;;;;22.08;15.00;;;;;;;12.75;100.00;102013.72;5091331;28;20024;-66
2023/08/10 03:45:26;;;;;;;20.90;14.75;;;;;;;12.71;100.00;102013.47;5091316;28;20107;-66
2023/08/10 03:47:51;;;;;;;19.75;14.73;;;;;;;12.68;100.00;102014.06;5091345;28;20111;-66
2023/08/10 03:50:17;;;;;;;19.48;13.70;;;;;;;12.67;100.00;102014.34;5091377;28;20355;-66
2023/08/10 03:52:42;;;;;;;19.95;14.70;;;;;;;12.61;100.00;102016.34;5091559;28;20024;-66
2023/08/10 03:55:07;;;;;;;20.85;15.30;;;;;;;12.55;100.00;102023.06;5091173;28;20103;-66
2023/08/10 03:57:33;;;;;;;21.77;15.18;;;;;;;12.51;100.00;102022.81;5091274;28;20103;-66
2023/08/10 03:59:58;;;;;;;20.52;15.13;;;;;;;12.50;100.00;102020.34;5091223;28;20368;-66
2023/08/10 04:02:24;;;;;;;21.50;15.00;;;;;;;12.53;100.00;102022.50;5091368;28;20439;-66
2023/08/10 04:04:49;;;;;;;20.42;15.00;;;;;;;12.52;100.00;102020.84;5091205;28;20393;-66
2023/08/10 04:07:15;;;;;;;20.45;15.48;;;;;;;12.51;100.00;102022.00;5091262;28;20498;-66
2023/08/10 04:09:46;;;;;;;22.35;15.88;;;;;;;12.55;100.00;102029.44;5091187;28;20028;-66
2023/08/10 04:12:11;;;;;;;20.30;15.52;;;;;;;12.58;100.00;102025.25;5091298;28;20043;-66
2023/08/10 04:14:37;;;;;;;20.77;15.88;;;;;;;12.61;100.00;102028.28;5091041;28;20441;-66
2023/08/10 04:17:02;;;;;;;22.42;16.10;;;;;;;12.61;100.00;102031.06;5091320;28;20101;-66
2023/08/10 04:19:27;;;;;;;21.42;15.52;;;;;;;12.62;100.00;102026.31;5089817;28;20088;-66
2023/08/10 04:21:53;;;;;;;20.48;15.90;;;;;;;12.60;100.00;102026.63;5091062;28;20143;-66
2023/08/10 04:24:18;;;;;;;20.92;15.85;;;;;;;12.57;100.00;102032.75;5091274;28;20110;-66
2023/08/10 04:26:45;;;;;;;21.95;16.10;;;;;;;12.57;100.00;102026.38;5091221;28;20024;-66
2023/08/10 04:29:10;;;;;;;21.67;16.35;;;;;;;12.54;100.00;102026.94;5091066;28;20048;-66
2023/08/10 04:31:36;;;;;;;20.80;15.73;;;;;;;12.52;100.00;102030.03;5092464;28;20020;-66
2023/08/10 04:34:01;;;;;;;20.80;15.75;;;;;;;12.52;100.00;102032.78;5095239;28;20333;-66
2023/08/10 04:36:26;;;;;;;21.35;15.55;;;;;;;12.52;100.00;102041.13;5095334;28;20020;-66
2023/08/10 04:38:52;;;;;;;20.95;14.95;;;;;;;12.50;100.00;102039.75;5095287;28;20024;-66
2023/08/10 04:41:17;;;;;;;20.67;14.70;;;;;;;12.45;100.00;102038.66;5095234;28;20035;-66
2023/08/10 04:43:43;;;;;;;20.70;14.43;;;;;;;12.45;100.00;102040.63;5093622;28;20063;-66
2023/08/10 04:46:09;;;;;;;20.23;14.40;;;;;;;12.41;100.00;102045.94;5094851;28;20035;-66
2023/08/10 04:48:34;;;;;;;21.33;14.73;;;;;;;12.43;100.00;102051.19;5094933;28;20414;-67
2023/08/10 04:51:00;;;;;;;21.48;14.80;;;;;;;12.44;100.00;102053.66;5094915;28;20475;-66
2023/08/10 04:53:25;;;;;;;21.80;14.85;;;;;;;12.48;100.00;102051.13;5094858;28;20027;-66
2023/08/10 04:55:51;;;;;;;20.27;14.48;;;;;;;12.54;100.00;102046.38;5094601;28;20474;-66
2023/08/10 04:58:16;;;;;;;20.90;14.23;;;;;;;12.60;100.00;102039.69;5094719;28;20100;-66
2023/08/10 05:00:41;;;;;;;21.60;14.35;;;;;;;12.68;100.00;102040.97;5094724;28;20097;-66
2023/08/10 05:03:07;;;;;;;20.35;14.20;;;;;;;12.75;100.00;102053.41;5094745;28;20077;-66
2023/08/10 05:05:32;;;;;;;22.50;14.90;;;;;;;12.76;100.00;102052.31;5094537;28;20445;-66
2023/08/10 05:07:58;;;;;;;21.67;14.77;;;;;;;12.82;100.00;102055.00;5094581;28;20109;-66
2023/08/10 05:10:23;;;;;;;20.98;14.88;;;;;;;12.86;100.00;102045.81;5094558;28;20053;-66
2023/08/10 05:12:49;;;;;;;21.08;14.98;;;;;;;12.92;100.00;102047.44;5094210;28;20376;-66
2023/08/10 05:15:14;;;;;;;22.85;14.90;;;;;;;12.97;100.00;102045.72;5094371;28;20028;-66
2023/08/10 05:17:40;;;;;;;21.88;14.85;;;;;;;13.02;100.00;102049.28;5094483;28;20165;-66
2023/08/10 05:20:10;;;;;;;20.83;14.82;;;;;;;13.08;100.00;102044.50;5094373;28;20105;-66
2023/08/10 05:22:37;;;;;;;21.15;14.55;;;;;;;13.14;100.00;102045.28;5094364;28;20016;-66
2023/08/10 05:25:04;;;;;;;22.13;14.82;;;;;;;13.20;100.00;102042.16;5094430;28;20514;-66
2023/08/10 05:27:29;;;;;;;21.02;14.85;;;;;;;13.28;100.00;102054.53;5094270;28;20032;-66
2023/08/10 05:29:54;;;;;;;21.88;15.55;;;;;;;13.35;100.00;102054.19;5094198;28;20052;-66
2023/08/10 05:32:20;;;;;;;20.73;14.50;;;;;;;13.39;100.00;102050.56;5094005;28;20020;-66
2023/08/10 05:34:45;;;;;;;22.05;14.88;;;;;;;13.54;100.00;102048.75;5094067;28;20043;-66
2023/08/10 05:37:10;;;;;;;24.15;16.17;;;;;;;13.56;100.00;102046.47;5094049;28;20028;-66
2023/08/10 05:39:35;;;;;;;21.52;16.17;;;;;;;13.54;100.00;102048.75;5094070;28;20081;-66
2023/08/10 05:42:01;;;;;;;23.10;16.40;;;;;;;13.55;100.00;102050.41;5093564;28;20097;-66
2023/08/10 05:44:26;;;;;;;22.58;16.23;;;;;;;13.55;100.00;102045.66;5092874;28;20066;-66
2023/08/10 05:46:51;;;;;;;22.73;17.10;;;;;;;13.57;100.00;102045.34;5093685;28;20016;-66
2023/08/10 05:49:17;;;;;;;22.98;16.95;;;;;;;13.49;100.00;102038.50;5093831;28;20035;-66
2023/08/10 05:51:42;;;;;;;21.85;16.85;;;;;;;13.51;100.00;102047.34;5093531;28;20070;-66
2023/08/10 05:54:07;;;;;;;22.20;17.65;;;;;;;13.56;100.00;102050.09;5093826;28;20055;-66
2023/08/10 05:56:33;;;;;;;24.55;17.88;;;;;;;13.56;100.00;102036.19;5092175;28;20438;-66
2023/08/10 05:58:58;;;;;;;22.65;17.85;;;;;;;13.61;100.00;102046.41;5093642;28;20035;-66
2023/08/10 06:01:23;;;;;;;22.88;17.80;;;;;;;13.67;100.00;102047.19;5093611;28;20039;-66
2023/08/10 06:03:48;;;;;;;25.15;18.50;;;;;;;13.71;100.00;102045.44;5093461;28;20027;-66
2023/08/10 06:06:14;;;;;;;25.52;18.10;;;;;;;13.77;100.00;102044.28;5093379;28;20036;-67
2023/08/10 06:08:39;;;;;;;23.75;18.98;;;;;;;13.81;100.00;102041.72;5093239;28;20429;-66
2023/08/10 06:11:05;;;;;;;23.95;18.02;;;;;;;13.84;100.00;102032.75;5092953;28;20027;-66
2023/08/10 06:13:31;;;;;;;23.40;18.70;;;;;;;13.86;100.00;102036.91;5092975;28;20031;-66
2023/08/10 06:15:57;;;;;;;25.60;19.10;;;;;;;13.92;100.00;102040.44;5091851;28;20044;-66
2023/08/10 06:18:22;;;;;;;23.55;18.27;;;;;;;14.03;100.00;102041.94;5092923;28;20085;-66
2023/08/10 06:20:47;;;;;;;23.20;17.88;;;;;;;14.13;100.00;102040.13;5092878;28;20016;-66
2023/08/10 06:23:13;;;;;;;24.80;17.88;;;;;;;14.24;100.00;102046.38;5092748;28;20043;-66
2023/08/10 06:25:39;;;;;;;23.15;17.35;;;;;;;14.34;100.00;102041.47;5092699;28;20093;-66
2023/08/10 06:28:06;;;;;;;24.25;17.15;;;;;;;14.44;100.00;102039.66;5092742;28;20027;-66
2023/08/10 06:30:32;;;;;;;22.02;16.52;;;;;;;14.51;100.00;102043.72;5092718;28;20081;-66
2023/08/10 06:32:57;;;;;;;22.48;17.05;;;;;;;14.59;100.00;102041.38;5092345;28;20028;-66
2023/08/10 06:35:24;;;;;;;20.63;15.95;;;;;;;14.71;100.00;102033.41;5092433;28;20020;-66
2023/08/10 06:37:50;;;;;;;22.58;15.88;;;;;;;14.79;100.00;102041.06;5092389;28;20024;-66
2023/08/10 06:40:15;;;;;;;22.70;16.08;;;;;;;14.90;100.00;102038.91;5092440;28;20097;-66
2023/08/10 06:42:42;;;;;;;22.80;15.70;;;;;;;15.00;100.00;102034.25;5092338;28;20039;-66
2023/08/10 06:45:08;;;;;;;22.85;16.42;;;;;;;15.09;100.00;102032.41;5092338;28;20024;-66
2023/08/10 06:47:34;;;;;;;23.00;16.67;;;;;;;15.17;100.00;102040.06;5092259;28;20519;-66
2023/08/10 06:49:59;;;;;;;23.45;17.15;;;;;;;15.25;100.00;102028.22;5092275;28;20024;-66
2023/08/10 06:52:25;;;;;;;21.52;16.88;;;;;;;15.31;100.00;102025.31;5092214;28;20027;-66
2023/08/10 06:54:52;;;;;;;23.30;18.08;;;;;;;15.40;100.00;102032.63;5091793;28;20082;-66
2023/08/10 06:57:21;;;;;;;23.33;17.02;;;;;;;15.47;100.00;102035.00;5092113;28;20032;-66
2023/08/10 06:59:46;;;;;;;23.35;18.02;;;;;;;15.54;100.00;102032.63;5092210;28;20032;-66
2023/08/10 07:02:12;;;;;;;23.23;16.98;;;;;;;15.61;100.00;102029.41;5092216;28;20094;-66
2023/08/10 07:04:39;;;;;;;22.52;17.13;;;;;;;15.64;100.00;102031.59;5092371;28;20032;-66
2023/08/10 07:07:05;;;;;;;22.02;16.65;;;;;;;15.70;100.00;102033.13;5092127;28;20088;-66
2023/08/10 07:09:30;;;;;;;22.40;16.63;;;;;;;15.77;100.00;102023.53;5092099;28;20032;-66
2023/08/10 07:11:55;;;;;;;22.20;16.45;;;;;;;15.88;100.00;102033.31;5091888;28;20032;-66
2023/08/10 07:14:21;;;;;;;21.58;15.57;;;;;;;15.95;100.00;102030.97;5092006;28;20028;-66
2023/08/10 07:16:46;;;;;;;21.40;15.18;;;;;;;16.04;100.00;102031.88;5091918;28;20028;-66
2023/08/10 07:19:11;;;;;;;21.63;15.20;;;;;;;16.15;100.00;102026.84;5091928;28;20028;-66
2023/08/10 07:21:37;;;;;;;22.10;15.52;;;;;;;16.20;100.00;102025.91;5091724;28;20035;-66
2023/08/10 07:24:05;;;;;;;20.45;15.00;;;;;;;16.22;99.69;102026.41;5091633;28;20028;-66
2023/08/10 07:26:31;;;;;;;20.75;14.48;;;;;;;16.30;98.62;102033.19;5091468;28;20024;-66
2023/08/10 07:28:57;;;;;;;19.42;14.02;;;;;;;16.35;96.44;102039.47;5091771;28;20052;-66
2023/08/10 07:31:23;;;;;;;19.65;14.40;;;;;;;16.44;97.34;102036.78;5091622;28;20024;-66
2023/08/10 07:33:49;;;;;;;22.15;14.00;;;;;;;16.51;96.18;102039.94;5091783;28;20056;-66
2023/08/10 07:36:14;;;;;;;21.35;14.45;;;;;;;16.55;94.89;102037.31;5091399;28;20135;-66
2023/08/10 07:38:40;;;;;;;20.70;13.90;;;;;;;16.64;97.17;102034.59;5091621;28;20115;-66
2023/08/10 07:41:05;;;;;;;20.90;14.10;;;;;;;16.71;96.28;102036.97;5091476;28;20119;-66
2023/08/10 07:43:30;;;;;;;19.95;13.65;;;;;;;16.80;93.57;102035.03;5091660;28;20020;-67
2023/08/10 07:45:55;;;;;;;19.73;12.32;;;;;;;16.86;89.28;102042.13;5091422;28;20398;-66
2023/08/10 07:48:21;;;;;;;19.63;11.98;;;;;;;16.95;86.50;102043.03;5091585;28;20036;-66
2023/08/10 07:50:47;;;;;;;20.90;12.40;;;;;;;17.01;85.41;102052.13;5091412;28;20054;-66
2023/08/10 07:53:12;;;;;;;19.13;12.45;;;;;;;17.08;85.23;102046.88;5091570;28;20376;-67
2023/08/10 07:55:37;;;;;;;19.05;12.07;;;;;;;17.16;82.16;102050.88;5091635;28;20024;-66
2023/08/10 07:58:03;;;;;;;19.67;12.40;;;;;;;17.23;82.98;102048.44;5091514;28;20020;-66
2023/08/10 08:00:28;;;;;;;20.08;12.57;;;;;;;17.30;82.53;102054.38;5091665;28;20428;-66
2023/08/10 08:02:54;;;;;;;20.15;13.30;;;;;;;17.40;82.36;102055.22;5091612;28;20047;-66
2023/08/10 08:05:19;;;;;;;18.95;12.15;;;;;;;17.48;79.17;102048.84;5091164;28;20035;-66
2023/08/10 08:07:44;;;;;;;19.38;12.60;;;;;;;17.60;80.86;102053.84;5090893;28;20103;-66
2023/08/10 08:10:10;;;;;;;19.20;12.70;;;;;;;17.69;81.69;102053.84;5091446;28;20535;-66
2023/08/10 08:12:35;;;;;;;19.02;11.75;;;;;;;17.72;76.15;102059.59;5091259;28;20036;-67
2023/08/10 08:15:03;;;;;;;18.35;11.43;;;;;;;17.76;76.23;102057.81;5091575;28;20085;-66
2023/08/10 08:18:07;;;;;;;20.70;11.70;;;;;;;17.82;77.49;102044.50;5091562;28;20470;-66
2023/08/10 08:20:32;;;;;;;18.17;11.32;;;;;;;17.84;73.61;102050.59;5089749;28;20071;-67
2023/08/10 08:22:57;;;;;;;18.00;11.40;;;;;;;17.88;73.49;102045.97;5091171;28;20060;-66
2023/08/10 08:25:22;;;;;;;17.00;11.10;;;;;;;17.93;73.28;102043.03;5091236;28;20028;-67
2023/08/10 08:27:48;;;;;;;17.40;10.82;;;;;;;18.01;73.19;102047.00;5091024;28;20445;-66
2023/08/10 08:30:13;;;;;;;16.98;10.88;;;;;;;18.17;73.08;102054.94;5090723;28;20528;-66
2023/08/10 08:32:38;;;;;;;16.55;10.70;;;;;;;18.30;72.76;102050.31;5090750;28;20028;-67
2023/08/10 08:35:04;;;;;;;16.73;10.77;;;;;;;18.38;69.28;102055.09;5089401;28;20125;-66
2023/08/10 08:37:32;;;;;;;16.70;10.27;;;;;;;18.49;68.78;102050.81;5090755;28;20024;-66
2023/08/10 08:39:57;;;;;;;14.98;9.90;;;;;;;18.62;69.81;102054.56;5090772;28;20058;-66
2023/08/10 08:42:24;;;;;;;15.10;9.55;;;;;;;18.70;68.07;102047.31;5090649;28;20032;-67
2023/08/10 08:44:50;;;;;;;15.13;10.05;;;;;;;18.84;67.86;102049.91;5090854;28;20028;-67
2023/08/10 08:47:15;;;;;;;14.88;9.88;;;;;;;18.98;68.50;102052.56;5090714;28;20027;-66
2023/08/10 08:49:41;;;;;;;15.40;10.32;;;;;;;19.16;68.52;102047.69;5090692;28;20099;-67
2023/08/10 08:52:06;;;;;;;17.67;10.57;;;;;;;19.40;65.62;102052.69;5090433;28;20030;-67
2023/08/10 08:54:32;;;;;;;15.63;9.98;;;;;;;19.54;65.64;102041.22;5090609;28;20036;-66
2023/08/10 08:56:58;;;;;;;15.05;9.70;;;;;;;19.73;64.35;102045.59;5090740;28;20119;-66
2023/08/10 08:59:23;;;;;;;15.52;9.77;;;;;;;19.99;66.36;102045.44;5090665;28;20573;-67
2023/08/10 09:01:49;;;;;;;14.32;9.80;;;;;;;20.27;64.69;102040.06;5090436;28;20036;-67
2023/08/10 09:04:14;;;;;;;16.05;10.40;;;;;;;20.47;63.05;102043.22;5090314;28;20582;-67
2023/08/10 09:06:39;;;;;;;16.17;10.20;;;;;;;20.58;60.77;102046.44;5090270;28;20518;-67
2023/08/10 09:09:05;;;;;;;15.93;10.05;;;;;;;20.58;61.96;102038.81;5090421;28;20382;-67
2023/08/10 09:11:30;;;;;;;16.13;10.30;;;;;;;20.65;61.41;102040.22;5090360;28;20032;-67
2023/08/10 09:14:08;;;;;;;18.45;9.82;;;;;;;20.69;61.79;102027.94;5090341;28;20032;-66
2023/08/10 09:16:34;;;;;;;14.52;9.82;;;;;;;20.91;61.90;102027.91;5090090;28;20032;-67
2023/08/10 09:19:01;;;;;;;16.25;9.60;;;;;;;20.97;59.50;102023.69;5093813;28;20020;-66
2023/08/10 09:21:31;;;;;;;14.88;9.90;;;;;;;21.11;59.87;102018.53;5093942;28;20062;-68
2023/08/10 09:23:57;;;;;;;16.60;10.05;;;;;;;21.30;59.50;102025.63;5094371;28;20061;-66
2023/08/10 09:26:25;;;;;;;16.73;10.50;;;;;;;21.43;57.74;102021.59;5093869;28;20124;-66
2023/08/10 09:28:51;;;;;;;15.32;10.45;;;;;;;21.71;57.59;102020.91;5093737;28;20059;-66
2023/08/10 09:31:25;;;;;;;16.52;10.55;;;;;;;22.10;58.47;102017.66;5093692;28;20406;-67
2023/08/10 09:33:59;;;;;;;14.88;10.23;;;;;;;22.52;59.60;102020.06;5093839;28;20053;-66
2023/08/10 09:36:27;;;;;;;15.18;9.43;;;;;;;22.94;57.37;102024.41;5093609;28;20024;-67
2023/08/10 09:38:53;;;;;;;13.93;9.48;;;;;;;22.82;54.79;102032.94;5093550;28;20028;-67
2023/08/10 09:41:21;;;;;;;14.77;10.00;;;;;;;22.65;54.11;102023.63;5093524;28;20486;-67
2023/08/10 09:43:47;;;;;;;15.68;9.95;;;;;;;22.46;54.76;102020.69;5093500;28;20039;-67
2023/08/10 09:46:16;;;;;;;16.08;10.52;;;;;;;22.29;54.79;102019.78;5093490;28;20070;-66
2023/08/10 09:48:50;;;;;;;14.27;10.20;;;;;;;22.28;57.23;102016.16;5093458;28;20108;-66
2023/08/10 09:51:16;;;;;;;15.35;10.48;;;;;;;22.28;56.89;102023.78;5093233;28;20036;-67
2023/08/10 09:53:41;;;;;;;15.25;10.23;;;;;;;22.21;56.06;102021.56;5093349;28;20495;-66
2023/08/10 09:56:07;;;;;;;15.50;10.50;;;;;;;22.13;55.66;102026.22;5093175;28;20484;-66
2023/08/10 09:58:37;;;;;;;15.63;10.55;;;;;;;22.25;56.01;102030.97;5092985;28;20071;-66
2023/08/10 10:01:07;;;;;;;14.95;10.45;;;;;;;22.25;56.34;102022.50;5093541;28;20028;-66
2023/08/10 10:03:33;;;;;;;14.98;10.40;;;;;;;22.19;56.45;102015.50;5093265;28;20050;-66
2023/08/10 10:06:00;;;;;;;16.17;10.70;;;;;;;22.24;56.95;102023.69;5092987;28;20032;-67
2023/08/10 10:08:26;;;;;;;15.65;10.90;;;;;;;22.26;56.27;102023.31;5091479;28;20024;-66
2023/08/10 10:10:53;;;;;;;15.60;10.45;;;;;;;22.27;56.82;102025.81;5092697;28;20028;-66
2023/08/10 10:13:19;;;;;;;14.93;10.40;;;;;;;22.28;55.68;102020.97;5092959;28;20036;-66
2023/08/10 10:15:45;;;;;;;16.08;10.50;;;;;;;22.31;54.61;102031.53;5092669;28;20325;-67
2023/08/10 10:18:11;;;;;;;16.00;10.23;;;;;;;22.31;55.92;102027.88;5092861;28;20028;-67
2023/08/10 10:20:43;;;;;;;15.65;10.20;;;;;;;22.30;56.59;102027.06;5092732;28;20146;-66
2023/08/10 10:23:17;;;;;;;16.15;10.38;;;;;;;22.24;56.37;102022.88;5091440;28;20028;-66
2023/08/10 10:26:02;;;;;;;15.40;10.20;;;;;;;22.19;56.99;102032.41;5092600;28;20364;-66
2023/08/10 10:28:31;;;;;;;17.80;10.40;;;;;;;22.16;57.35;102037.91;5092069;28;20468;-67
2023/08/10 10:31:09;;;;;;;15.45;10.13;;;;;;;22.11;56.36;102039.81;5092097;28;20024;-66
2023/08/10 10:33:35;;;;;;;15.23;10.50;;;;;;;22.18;55.79;102046.84;5090941;28;20062;-66
2023/08/10 10:36:14;;;;;;;14.02;10.20;;;;;;;22.23;57.67;102040.97;5092188;28;20032;-66
2023/08/10 10:38:50;;;;;;;16.13;10.25;;;;;;;22.31;56.29;102040.00;5092365;28;20028;-66
2023/08/10 10:41:27;;;;;;;15.75;10.20;;;;;;;22.40;57.70;102043.50;5092436;28;20736;-67
2023/08/10 10:43:52;;;;;;;16.50;10.32;;;;;;;22.49;57.00;102042.53;5092248;28;20032;-66
2023/08/10 10:46:33;;;;;;;15.05;10.00;;;;;;;22.64;57.38;102024.81;5092165;28;20021;-67
2023/08/10 10:49:18;;;;;;;16.17;10.75;;;;;;;22.63;55.84;102031.63;5092113;28;20089;-66
2023/08/10 10:51:58;;;;;;;13.90;9.95;;;;;;;22.79;55.79;102036.50;5092044;28;20028;-66
2023/08/10 10:54:24;;;;;;;15.93;10.23;;;;;;;22.86;54.93;102039.50;5092172;28;20032;-67
2023/08/10 10:56:50;;;;;;;16.10;10.40;;;;;;;22.94;53.31;102029.25;5091861;28;20028;-67
2023/08/10 10:59:15;;;;;;;16.10;10.25;;;;;;;22.90;53.86;102027.13;5091964;28;20107;-66
2023/08/10 11:01:45;;;;;;;14.60;10.25;;;;;;;23.15;55.74;102026.94;5092001;28;20429;-66
2023/08/10 11:04:11;;;;;;;16.13;10.75;;;;;;;23.16;54.41;102030.59;5091915;28;20111;-67
2023/08/10 11:06:37;;;;;;;16.70;10.60;;;;;;;23.31;54.37;102026.97;5091786;28;20095;-67